Aérodrome :
LOGIN :

S'inscrire | Disclaimer

   EN    FR    IT 

 










Légende :    VFR   VFR Marginal   IFR   IFR Intensif   IFR Très Intensif
Visi : 
Plafond : 
>= 8 km
>= 3000ft
5 à 8 km
1000 à 3000 ft
1500m à 5 km
500 à 1000 ft
800 à 1500m
200 à 500 ft
< 800m
< 200 ft
Symboles :   Orages  Brouillard  Fortes neiges  Fortes précipitations  Vent > 20 kt
SIGMETs :   Divers  Orages  Givrage  Turbulence  Onde Orograph.  Cendres Volcan.







- Altitude de l'aérodrome : 1197 ft
- Code IATA : SPM


ETAD - Spangdahlem Ab

DERNIER METAR :
  • 270611Z 25006KT 5000 BR OVC004 13/13 A2985 RMK AO2A VIS 3200 RWY05/23 SLP094 $

METARs EXPIRÉS :
  • 270556Z 24009KT 8000 BR OVC006 13/13 A2985 RMK AO2A SLP094 60000 T01270125 10128 20118 53001 $
  • 270541Z AUTO 25007KT 9999 OVC007 13/13 A2985 RMK AO2 SLP094 $
  • 270511Z AUTO 22007KT 9999 OVC008 13/12 A2984 RMK AO2 SLP089 $
  • 270456Z AUTO 23006KT 9999 OVC009 13/12 A2984 RMK AO2 SLP089 T01270118 $
  • 270356Z AUTO 23007KT 9999 OVC010 13/12 A2984 RMK AO2 SLP089 T01250116 $

TAF TAF ETAD
Valide du 26 à 10h jusqu'au 27 à 16h UTC


261003Z 2610/2716 27010G15KT 9999 SCT030 SCT050 QNH2994INS WND 27009KT AFT 2616Z
BECMG 2621/2622 27009KT 9999 BKN020 OVC050 QNH2980INS
BECMG 2706/2707 27010G15KT 6000 -RA BKN010 OVC030 QNH2976INS
BECMG 2714/2715 27012G18KT 9999 NSW BKN030 QNH2977INS TX19/2612Z TN12/2703Z LAST NO AMDS AFT 2614 NEXT 2710
Pas de NOTAMs connus pour ce terrain.



MET'MAP, la Météo Aéronautique d'un coup d'oeil ! - Copyright ORBIFLY Décembre 2007 - Disclaimer

ORBIFLY MET'MAP TEAM :

Programmation & Développement : Alexandra Zaïnal
Conception & Développement : Baudouin d'Aumeries
Co-Programmation & Développement : Marc-Olivier Méhu
Soutien technique & logistique : Manuel Goepfert

Contact : metmap@orbifly.com




SOURCES & CREDITS :

   NOAA